Time;durP1;ratioP1;P1;durP2;ratioP2;P2;SDS_P1;SDS_P2;PMS_P1;PMS_P2;Temp;Humidity;BMP_temperature;BMP_pressure;BME280_temperature;BME280_humidity;BME280_pressure;Samples;Min_cycle;Max_cycle;Signal;HPM_P1;HPM_P2
2023/07/23 00:01:32;;;;;;;314.30;296.67;;;13.70;84.90;;;;;;5035009;28;20503;-88
2023/07/23 00:03:58;;;;;;;301.35;283.88;;;13.70;84.90;;;;;;5021340;28;20111;-88
2023/07/23 00:06:33;;;;;;;320.20;301.63;;;13.70;84.90;;;;;;5040628;28;20048;-90
2023/07/23 00:08:59;;;;;;;291.58;274.52;;;13.70;84.90;;;;;;5014004;28;20048;-90
2023/07/23 00:11:25;;;;;;;282.08;264.73;;;13.70;85.00;;;;;;5041679;28;20092;-88
2023/07/23 00:13:50;;;;;;;457.48;426.13;;;13.70;85.00;;;;;;5017106;28;20057;-89
2023/07/23 00:16:16;;;;;;;296.55;278.95;;;13.70;85.00;;;;;;5043526;28;20041;-90
2023/07/23 00:18:49;;;;;;;463.45;431.40;;;13.70;85.10;;;;;;5001840;28;20064;-89
2023/07/23 00:21:16;;;;;;;456.08;424.33;;;13.70;85.10;;;;;;5047548;28;20479;-87
2023/07/23 00:23:41;;;;;;;444.70;413.88;;;13.60;85.10;;;;;;5021933;28;20586;-89
2023/07/23 00:26:10;;;;;;;426.45;396.63;;;13.70;85.10;;;;;;5022034;28;20144;-90
2023/07/23 00:28:36;;;;;;;434.25;404.00;;;13.60;85.20;;;;;;5045322;28;20042;-89
2023/07/23 00:31:05;;;;;;;437.60;407.63;;;13.60;85.10;;;;;;5021853;28;20068;-88
2023/07/23 00:33:37;;;;;;;295.20;277.70;;;13.60;85.10;;;;;;5020401;28;20155;-89
2023/07/23 00:36:03;;;;;;;431.33;402.02;;;13.60;85.20;;;;;;5001114;28;20052;-88
2023/07/23 00:38:29;;;;;;;456.75;425.45;;;13.60;85.20;;;;;;5014914;28;20050;-89
2023/07/23 00:40:56;;;;;;;291.33;271.27;;;13.60;85.20;;;;;;5028682;28;20041;-88
2023/07/23 00:43:23;;;;;;;428.98;402.00;;;13.60;85.20;;;;;;5031506;28;20049;-89
2023/07/23 00:45:53;;;;;;;366.77;343.45;;;13.60;85.20;;;;;;5056662;28;20045;-89
2023/07/23 00:48:19;;;;;;;290.92;272.55;;;13.60;85.10;;;;;;5009151;28;20081;-89
2023/07/23 00:50:45;;;;;;;361.70;338.85;;;13.60;85.30;;;;;;5020354;28;20476;-86
2023/07/23 00:53:11;;;;;;;387.60;363.33;;;13.60;85.30;;;;;;5019139;28;20057;-89
2023/07/23 00:55:37;;;;;;;249.35;233.90;;;13.60;85.10;;;;;;5020976;28;20111;-89
2023/07/23 00:58:03;;;;;;;383.17;359.33;;;13.60;85.20;;;;;;5013515;28;20111;-90
2023/07/23 01:00:28;;;;;;;389.65;364.92;;;13.60;85.10;;;;;;5004060;28;20057;-87
2023/07/23 01:03:02;;;;;;;248.48;232.95;;;13.60;85.10;;;;;;5005584;28;20050;-89
2023/07/23 01:05:29;;;;;;;366.13;343.15;;;13.60;85.20;;;;;;5018642;28;20136;-89
2023/07/23 01:07:56;;;;;;;367.55;344.33;;;13.50;85.30;;;;;;5019911;28;20407;-89
2023/07/23 01:10:23;;;;;;;368.70;345.52;;;13.50;85.30;;;;;;5005940;28;20057;-89
2023/07/23 01:12:51;;;;;;;372.50;348.63;;;13.50;85.30;;;;;;5008119;28;20131;-89
2023/07/23 01:15:18;;;;;;;365.17;342.02;;;13.50;85.30;;;;;;5027555;28;20053;-88
2023/07/23 01:17:45;;;;;;;353.67;330.77;;;13.60;85.30;;;;;;5016046;28;20049;-88
2023/07/23 01:20:12;;;;;;;375.15;351.77;;;13.50;85.30;;;;;;5023469;28;20083;-89
2023/07/23 01:22:38;;;;;;;371.15;347.17;;;13.50;85.40;;;;;;5023535;28;20126;-89
2023/07/23 01:25:07;;;;;;;379.67;356.15;;;13.50;85.40;;;;;;5040935;28;20073;-89
2023/07/23 01:27:36;;;;;;;304.35;285.00;;;13.50;85.40;;;;;;5029587;28;20051;-90
2023/07/23 01:30:08;;;;;;;357.38;334.40;;;13.60;85.40;;;;;;5028885;28;20053;-90
2023/07/23 01:32:37;;;;;;;373.45;349.98;;;13.60;85.50;;;;;;5023380;28;20055;-89
2023/07/23 01:35:13;;;;;;;378.30;354.50;;;13.60;85.50;;;;;;5018015;28;20045;-88
2023/07/23 01:37:52;;;;;;;257.77;241.93;;;13.60;85.50;;;;;;5020148;28;20605;-89
2023/07/23 01:40:18;;;;;;;266.20;249.38;;;13.60;85.50;;;;;;5046902;28;20052;-89
2023/07/23 01:42:44;;;;;;;339.80;317.90;;;13.60;85.60;;;;;;5018206;28;20057;-89
2023/07/23 01:45:16;;;;;;;330.67;309.40;;;13.60;85.60;;;;;;5024003;28;20522;-89
2023/07/23 01:47:42;;;;;;;310.30;290.45;;;13.60;85.70;;;;;;5031654;28;20083;-89
2023/07/23 01:50:08;;;;;;;274.25;256.65;;;13.60;85.60;;;;;;5018053;28;20041;-89
2023/07/23 01:52:34;;;;;;;295.33;277.08;;;13.60;85.60;;;;;;5004886;28;20038;-88
2023/07/23 01:55:03;;;;;;;307.25;288.17;;;13.60;85.60;;;;;;5000862;28;20056;-89
2023/07/23 01:57:31;;;;;;;295.75;277.05;;;13.60;85.70;;;;;;5015009;28;20049;-89
2023/07/23 02:00:00;;;;;;;306.00;286.92;;;13.60;85.70;;;;;;5013611;28;20403;-89
2023/07/23 02:02:26;;;;;;;316.17;296.27;;;13.60;85.60;;;;;;5034596;28;20928;-89
2023/07/23 02:04:55;;;;;;;317.88;297.55;;;13.60;85.70;;;;;;5030939;28;20049;-89
2023/07/23 02:07:23;;;;;;;338.25;317.08;;;13.60;85.70;;;;;;5014504;28;20509;-89
2023/07/23 02:09:50;;;;;;;327.02;306.23;;;13.70;85.70;;;;;;5007629;28;20438;-89
2023/07/23 02:12:18;;;;;;;254.32;237.93;;;13.60;85.70;;;;;;5016771;28;20053;-90
2023/07/23 02:14:47;;;;;;;318.92;298.65;;;13.70;85.70;;;;;;5020923;28;20038;-90
2023/07/23 02:17:13;;;;;;;319.35;299.20;;;13.60;85.70;;;;;;5005476;28;20071;-89
2023/07/23 02:19:39;;;;;;;323.92;303.80;;;13.70;85.70;;;;;;5025015;28;20037;-88
2023/07/23 02:22:07;;;;;;;325.75;305.20;;;13.60;85.80;;;;;;5022125;28;20049;-89
2023/07/23 02:24:33;;;;;;;298.77;279.92;;;13.70;85.80;;;;;;5044734;28;20496;-89
2023/07/23 02:26:59;;;;;;;280.10;262.27;;;13.60;85.70;;;;;;5012570;28;20115;-88
2023/07/23 02:29:25;;;;;;;272.90;256.08;;;13.60;85.70;;;;;;5021595;28;20057;-88
2023/07/23 02:31:50;;;;;;;301.27;281.95;;;13.70;85.80;;;;;;5050662;28;20151;-87
2023/07/23 02:34:19;;;;;;;286.95;268.98;;;13.60;85.70;;;;;;5019543;28;20045;-88
2023/07/23 02:36:46;;;;;;;290.85;272.92;;;13.60;85.60;;;;;;5021204;28;20037;-90
2023/07/23 02:39:15;;;;;;;296.10;277.58;;;13.60;85.70;;;;;;5032709;28;20049;-89
2023/07/23 02:41:41;;;;;;;280.45;262.73;;;13.60;85.60;;;;;;5043314;28;20045;-89
2023/07/23 02:44:12;;;;;;;315.00;295.48;;;13.60;85.60;;;;;;5026735;28;20056;-89
2023/07/23 02:46:39;;;;;;;276.45;259.17;;;13.60;85.50;;;;;;5029470;28;20379;-89
2023/07/23 02:49:05;;;;;;;267.40;250.75;;;13.60;85.50;;;;;;5024301;28;20073;-88
2023/07/23 02:51:34;;;;;;;294.48;275.77;;;13.60;85.50;;;;;;5020609;28;20047;-89
2023/07/23 02:54:01;;;;;;;288.15;270.05;;;13.60;85.40;;;;;;5025332;28;20045;-89
2023/07/23 02:56:29;;;;;;;265.77;249.27;;;13.60;85.40;;;;;;5024701;28;20064;-91
2023/07/23 02:58:58;;;;;;;275.10;258.35;;;13.60;85.30;;;;;;5019417;28;20056;-89
2023/07/23 03:01:25;;;;;;;308.17;289.52;;;13.60;85.20;;;;;;5035583;28;20092;-89
2023/07/23 03:03:56;;;;;;;286.40;268.63;;;13.60;85.20;;;;;;5010701;28;20502;-89
2023/07/23 03:06:22;;;;;;;274.75;258.20;;;13.60;85.20;;;;;;5018520;28;20396;-90
2023/07/23 03:08:48;;;;;;;253.43;237.55;;;13.60;85.20;;;;;;5025178;28;20041;-89
2023/07/23 03:11:18;;;;;;;294.35;276.77;;;13.60;85.10;;;;;;5039711;28;20402;-92
2023/07/23 03:13:43;;;;;;;235.98;222.63;;;13.60;85.00;;;;;;5027336;28;20045;-90
2023/07/23 03:16:18;;;;;;;233.35;219.45;;;13.60;85.00;;;;;;5005172;28;20124;-91
2023/07/23 03:18:49;;;;;;;238.32;224.30;;;13.60;84.90;;;;;;5031153;28;20080;-89
2023/07/23 03:21:15;;;;;;;;;;;13.60;85.00;;;;;;5021559;28;20099;-89
2023/07/23 03:23:41;;;;;;;113.90;106.63;;;13.60;85.10;;;;;;5017976;28;20337;-89
2023/07/23 03:26:10;;;;;;;205.60;193.63;;;13.60;85.10;;;;;;5022412;28;20076;-90
2023/07/23 03:28:36;;;;;;;228.57;215.50;;;13.60;84.90;;;;;;5005214;28;20072;-88
2023/07/23 03:31:02;;;;;;;232.90;219.68;;;13.60;84.80;;;;;;5033555;28;20056;-89
2023/07/23 03:33:28;;;;;;;232.15;218.95;;;13.70;84.90;;;;;;5044915;28;20045;-89
2023/07/23 03:35:55;;;;;;;208.50;196.77;;;13.60;84.80;;;;;;5027134;28;20049;-91
2023/07/23 03:38:24;;;;;;;240.65;226.38;;;13.60;84.80;;;;;;5015325;28;20053;-89
2023/07/23 03:40:51;;;;;;;251.25;236.32;;;13.70;84.80;;;;;;5027529;28;20076;-90
2023/07/23 03:43:20;;;;;;;248.82;234.70;;;13.60;84.90;;;;;;5004993;28;20080;-90
2023/07/23 03:45:45;;;;;;;246.00;231.90;;;13.60;84.80;;;;;;5012517;28;20155;-89
2023/07/23 03:48:11;;;;;;;236.43;223.23;;;13.60;84.80;;;;;;5008883;28;20188;-90
2023/07/23 03:50:37;;;;;;;236.43;222.20;;;13.60;84.80;;;;;;5020799;28;20050;-89
2023/07/23 03:53:03;;;;;;;231.93;218.07;;;13.60;84.80;;;;;;5008862;28;20089;-88
2023/07/23 03:55:29;;;;;;;238.05;223.57;;;13.60;84.90;;;;;;5016220;28;20095;-90
2023/07/23 03:57:55;;;;;;;241.55;226.60;;;13.60;84.70;;;;;;5016985;28;20138;-89
2023/07/23 04:00:22;;;;;;;238.98;224.48;;;13.70;84.90;;;;;;5014744;28;20541;-90
2023/07/23 04:02:51;;;;;;;242.10;227.82;;;13.60;84.90;;;;;;5019664;28;20076;-88
2023/07/23 04:05:18;;;;;;;247.18;232.73;;;13.60;84.90;;;;;;5036844;28;20049;-90
2023/07/23 04:07:47;;;;;;;257.35;242.32;;;13.60;84.90;;;;;;5025407;28;20049;-89
2023/07/23 04:10:14;;;;;;;249.70;234.57;;;13.60;84.90;;;;;;5039981;28;20076;-91
2023/07/23 04:12:47;;;;;;;244.30;229.50;;;13.60;84.90;;;;;;5003890;28;20049;-90
2023/07/23 04:15:13;;;;;;;246.13;231.25;;;13.60;85.00;;;;;;5036713;28;20075;-88
2023/07/23 04:17:38;;;;;;;230.73;216.73;;;13.60;85.10;;;;;;4999053;28;20654;-89
2023/07/23 04:20:09;;;;;;;240.88;226.10;;;13.60;85.00;;;;;;5021264;28;20091;-90
2023/07/23 04:22:42;;;;;;;266.70;251.20;;;13.60;84.90;;;;;;5029141;28;20069;-89
2023/07/23 04:25:09;;;;;;;224.30;210.52;;;13.60;85.00;;;;;;5028749;28;20048;-90
2023/07/23 04:27:35;;;;;;;218.80;204.65;;;13.60;85.00;;;;;;5009170;28;20049;-90
2023/07/23 04:30:01;;;;;;;246.32;231.70;;;13.60;85.10;;;;;;5027927;28;20060;-89
2023/07/23 04:32:27;;;;;;;240.38;226.05;;;13.60;85.10;;;;;;5018710;28;20419;-90
2023/07/23 04:34:53;;;;;;;250.27;235.32;;;13.60;85.10;;;;;;5042737;28;20055;-91
2023/07/23 04:37:23;;;;;;;241.73;227.10;;;13.60;85.10;;;;;;5017282;28;20116;-90
2023/07/23 04:39:48;;;;;;;255.85;240.18;;;13.60;85.10;;;;;;5039001;28;20079;-89
2023/07/23 04:42:17;;;;;;;239.88;225.05;;;13.60;85.20;;;;;;5052070;28;20045;-89
2023/07/23 04:44:48;;;;;;;249.55;234.85;;;13.60;85.10;;;;;;5049967;28;20057;-89
2023/07/23 04:47:20;;;;;;;248.77;232.85;;;13.60;85.10;;;;;;5021363;28;20069;-90
2023/07/23 04:49:46;;;;;;;243.13;228.32;;;13.60;85.20;;;;;;5034997;28;20045;-89
2023/07/23 04:52:12;;;;;;;250.68;235.45;;;13.60;85.20;;;;;;5026573;28;20115;-90
2023/07/23 04:54:38;;;;;;;282.23;265.02;;;13.60;85.20;;;;;;5023265;28;20441;-89
2023/07/23 04:57:46;;;;;;;279.15;261.70;;;13.60;85.20;;;;;;5004841;28;20586;-90
2023/07/23 05:00:17;;;;;;;262.65;246.00;;;13.70;85.30;;;;;;4952763;28;20045;-89
2023/07/23 05:02:43;;;;;;;240.37;225.23;;;13.70;85.50;;;;;;5010734;28;20098;-89
2023/07/23 05:05:11;;;;;;;294.67;276.42;;;13.70;85.40;;;;;;5027044;28;20049;-90
2023/07/23 05:07:42;;;;;;;299.25;280.45;;;13.70;85.30;;;;;;5002763;28;20050;-91
2023/07/23 05:10:17;;;;;;;218.68;204.18;;;13.70;85.40;;;;;;5025659;28;20106;-90
2023/07/23 05:13:16;;;;;;;276.80;259.30;;;13.70;85.40;;;;;;5031496;28;20056;-90
2023/07/23 05:15:44;;;;;;;198.63;186.18;;;13.70;85.30;;;;;;5005469;28;20049;-89
2023/07/23 05:18:10;;;;;;;250.35;234.55;;;13.70;85.10;;;;;;5024071;28;20127;-89
2023/07/23 05:20:36;;;;;;;260.17;243.90;;;13.70;85.00;;;;;;5018044;28;20037;-89
2023/07/23 05:23:10;;;;;;;278.38;261.27;;;13.70;85.10;;;;;;5034048;28;20045;-87
2023/07/23 05:25:36;;;;;;;274.80;257.65;;;13.70;85.10;;;;;;5022154;28;20090;-89
2023/07/23 05:28:02;;;;;;;277.92;259.45;;;13.70;85.00;;;;;;4998539;28;20077;-89
2023/07/23 05:30:28;;;;;;;247.57;232.27;;;13.70;85.20;;;;;;5017541;28;20045;-90
2023/07/23 05:32:54;;;;;;;257.52;241.43;;;13.70;85.00;;;;;;5048729;28;20049;-89
2023/07/23 05:35:41;;;;;;;253.20;237.40;;;13.70;85.10;;;;;;5022972;28;20045;-89
2023/07/23 05:38:26;;;;;;;245.18;229.70;;;13.70;85.10;;;;;;5044365;28;20484;-90
2023/07/23 05:41:15;;;;;;;252.77;237.35;;;13.70;85.00;;;;;;5051931;28;20057;-91
2023/07/23 05:44:06;;;;;;;264.85;248.38;;;13.70;85.20;;;;;;4985647;28;20061;-90
2023/07/23 05:46:31;;;;;;;230.13;215.35;;;13.70;85.20;;;;;;5019208;28;20052;-93
2023/07/23 05:49:00;;;;;;;292.27;274.17;;;13.70;85.10;;;;;;5015813;28;20042;-89
2023/07/23 05:51:32;;;;;;;291.70;272.90;;;13.70;85.10;;;;;;5022414;28;20056;-90
2023/07/23 05:54:18;;;;;;;267.52;250.63;;;13.70;85.10;;;;;;5011878;28;20053;-90
2023/07/23 05:56:48;;;;;;;248.77;232.77;;;13.70;85.20;;;;;;5006033;28;20124;-92
2023/07/23 05:59:14;;;;;;;285.65;266.63;;;13.80;85.20;;;;;;5004399;28;20059;-88
2023/07/23 06:01:40;;;;;;;304.38;285.10;;;13.80;85.10;;;;;;5024385;28;20465;-89
2023/07/23 06:04:09;;;;;;;300.70;281.05;;;13.80;85.10;;;;;;5049826;28;20053;-92
2023/07/23 06:06:59;;;;;;;299.35;280.08;;;13.90;85.10;;;;;;5014719;28;20138;-91
2023/07/23 06:09:26;;;;;;;277.60;260.13;;;13.90;85.30;;;;;;5044978;28;20403;-90
2023/07/23 06:11:53;;;;;;;267.45;250.45;;;13.90;85.30;;;;;;5026517;28;20059;-90
2023/07/23 06:14:45;;;;;;;289.98;271.58;;;13.90;85.30;;;;;;5016969;28;20045;-90
2023/07/23 06:17:17;;;;;;;276.83;259.27;;;13.90;85.20;;;;;;5043602;28;20114;-92
2023/07/23 06:20:05;;;;;;;288.02;269.45;;;13.90;85.30;;;;;;5019253;28;20055;-91
2023/07/23 06:23:09;;;;;;;269.27;252.13;;;13.90;85.30;;;;;;5030001;28;20055;-91
2023/07/23 06:26:12;;;;;;;266.40;249.60;;;13.90;85.30;;;;;;5019917;28;20068;-91
2023/07/23 06:29:20;;;;;;;;;;;;;;;;;;;;;
2023/07/23 06:32:03;;;;;;;247.73;232.05;;;14.00;85.30;;;;;;4980692;28;20054;-90
2023/07/23 06:34:29;;;;;;;271.15;253.93;;;14.00;85.20;;;;;;4963456;28;20085;-88
2023/07/23 06:40:26;;;;;;;281.92;263.33;;;14.10;85.20;;;;;;5012266;28;20045;-90
2023/07/23 06:43:20;;;;;;;293.45;274.65;;;14.20;85.10;;;;;;5006113;28;20146;-92
2023/07/23 06:45:55;;;;;;;279.83;262.45;;;14.20;84.90;;;;;;5043575;28;20041;-93
2023/07/23 06:48:23;;;;;;;280.10;261.85;;;14.20;84.90;;;;;;5007145;28;20050;-92
2023/07/23 06:51:07;;;;;;;301.20;282.27;;;14.20;85.00;;;;;;5033357;28;20060;-93
2023/07/23 06:53:37;;;;;;;304.20;284.17;;;14.30;85.00;;;;;;4994715;28;20052;-92
2023/07/23 06:59:51;;;;;;;;;;;;;;;;;;;;;
2023/07/23 07:02:46;;;;;;;262.85;245.65;;;14.40;85.00;;;;;;4915955;29;20055;-93
2023/07/23 07:08:47;;;;;;;314.55;294.25;;;14.40;85.00;;;;;;4891107;29;20131;-93
2023/07/23 07:11:55;;;;;;;288.38;269.08;;;14.40;85.10;;;;;;4959621;28;20043;-93
2023/07/23 07:14:57;;;;;;;317.17;297.67;;;14.50;85.00;;;;;;4962720;28;20090;-93
2023/07/23 07:17:53;;;;;;;;;;;;;;;;;;;;;
2023/07/23 07:21:32;;;;;;;277.30;259.55;;;14.50;85.00;;;;;;4989462;28;20574;-94
2023/07/23 07:24:27;;;;;;;299.77;280.40;;;14.50;85.10;;;;;;4938280;28;20089;-92
2023/07/23 07:27:27;;;;;;;314.10;293.27;;;14.50;85.30;;;;;;4944929;28;20606;-93
2023/07/23 07:30:42;;;;;;;316.10;295.60;;;14.60;85.30;;;;;;4942732;28;20080;-92
2023/07/23 07:34:13;;;;;;;280.92;263.30;;;14.60;85.40;;;;;;4879073;29;20138;-95
2023/07/23 07:36:44;;;;;;;288.35;270.10;;;14.60;85.70;;;;;;4964351;28;20054;-91
2023/07/23 07:50:22;;;;;;;284.52;265.65;;;14.70;85.50;;;;;;4852183;29;20050;-92
2023/07/23 07:53:45;;;;;;;;;;;;;;;;;;;;;
2023/07/23 07:57:09;;;;;;;294.30;275.17;;;14.70;85.40;;;;;;4839559;29;20058;-92
2023/07/23 08:00:11;;;;;;;;;;;;;;;;;;;;;
2023/07/23 08:11:36;;;;;;;;;;;;;;;;;;;;;
2023/07/23 08:15:47;;;;;;;;;;;;;;;;;;;;;
2023/07/23 08:21:54;;;;;;;289.08;270.92;;;15.00;85.80;;;;;;4770004;29;20047;-92
2023/07/23 08:24:20;;;;;;;306.95;287.77;;;15.00;85.50;;;;;;4729563;30;20520;-92
2023/07/23 08:30:27;;;;;;;317.23;297.10;;;15.00;85.50;;;;;;4817876;29;20141;-90
2023/07/23 08:36:44;;;;;;;265.70;249.23;;;15.00;85.50;;;;;;4827712;29;20734;-94
2023/07/23 08:55:30;;;;;;;;;;;;;;;;;;;;;
2023/07/23 08:58:48;;;;;;;295.17;277.25;;;15.10;84.80;;;;;;4791762;29;20054;-96
2023/07/23 09:08:23;;;;;;;312.48;293.80;;;15.20;84.70;;;;;;4696621;30;20776;-92
2023/07/23 09:11:04;;;;;;;;;;;;;;;;;;;;;
2023/07/23 09:21:11;;;;;;;294.27;277.02;;;15.20;84.40;;;;;;4703484;30;20052;-95
2023/07/23 09:24:28;;;;;;;;;;;;;;;;;;;;;
2023/07/23 09:31:36;;;;;;;282.35;265.55;;;15.20;84.20;;;;;;4822316;29;20484;-94
2023/07/23 09:38:45;;;;;;;;;;;;;;;;;;;;;
2023/07/23 09:41:48;;;;;;;;;;;15.20;84.20;;;;;;4813427;29;20095;-95
2023/07/23 09:44:46;;;;;;;253.77;238.60;;;15.20;84.10;;;;;;4803580;29;19925;-92
2023/07/23 09:47:53;;;;;;;284.23;267.30;;;15.30;84.10;;;;;;4829761;29;20088;-92
2023/07/23 09:50:27;;;;;;;298.33;278.67;;;15.30;83.80;;;;;;4823745;29;20045;-91
2023/07/23 09:53:22;;;;;;;304.38;286.25;;;15.30;84.00;;;;;;4797835;29;20064;-94
2023/07/23 09:55:51;;;;;;;304.73;286.30;;;15.30;83.90;;;;;;4915807;29;20057;-91
2023/07/23 10:01:27;;;;;;;308.85;289.83;;;15.30;84.00;;;;;;4965593;28;20629;-92
2023/07/23 10:04:14;;;;;;;359.15;335.30;;;15.30;84.20;;;;;;4944724;28;20505;-94
2023/07/23 10:09:47;;;;;;;292.10;274.88;;;15.30;84.10;;;;;;4896732;28;20928;-95
2023/07/23 10:12:42;;;;;;;303.70;284.88;;;15.30;84.10;;;;;;4947771;28;20571;-94
2023/07/23 10:15:32;;;;;;;285.77;268.58;;;15.30;83.90;;;;;;4936403;28;20153;-91
2023/07/23 10:18:22;;;;;;;296.98;279.08;;;15.40;83.90;;;;;;4923631;28;20051;-93
2023/07/23 10:21:21;;;;;;;273.90;257.40;;;15.40;83.70;;;;;;4946148;28;20158;-96
2023/07/23 10:24:36;;;;;;;303.02;284.55;;;15.40;83.70;;;;;;4929624;28;20137;-94
2023/07/23 10:27:20;;;;;;;290.95;273.88;;;15.50;83.70;;;;;;4948755;28;20291;-92
2023/07/23 10:30:18;;;;;;;316.85;297.73;;;15.50;83.80;;;;;;4940361;28;20047;-94
2023/07/23 10:33:33;;;;;;;279.10;262.57;;;15.50;83.60;;;;;;4941549;28;20061;-91
2023/07/23 10:36:11;;;;;;;;;;;15.50;83.50;;;;;;4950310;28;20540;-93
2023/07/23 10:38:46;;;;;;;271.90;256.08;;;15.50;83.30;;;;;;4931201;28;19930;-94
2023/07/23 10:42:07;;;;;;;306.33;287.98;;;15.50;83.30;;;;;;4968837;28;20046;-95
2023/07/23 10:45:17;;;;;;;291.15;273.48;;;15.60;83.10;;;;;;4821871;29;20065;-92
2023/07/23 10:47:55;;;;;;;373.17;348.42;;;15.60;83.20;;;;;;4866549;28;20161;-92
2023/07/23 10:58:24;;;;;;;287.92;270.95;;;15.80;83.30;;;;;;4759283;30;20515;-96
2023/07/23 11:05:42;;;;;;;267.10;251.38;;;16.00;82.80;;;;;;4734837;30;20059;-95
2023/07/23 11:08:32;;;;;;;289.40;272.42;;;16.00;82.60;;;;;;4740407;30;20051;-95
2023/07/23 11:14:40;;;;;;;330.10;309.50;;;16.00;82.10;;;;;;4727493;29;20058;-94
2023/07/23 11:17:09;;;;;;;318.58;299.02;;;16.00;82.50;;;;;;4768979;29;20145;-91
2023/07/23 11:19:38;;;;;;;325.98;305.65;;;16.00;82.40;;;;;;4783940;29;20057;-91
2023/07/23 11:22:13;;;;;;;376.10;351.70;;;16.00;82.30;;;;;;4813597;29;20525;-93
2023/07/23 11:24:55;;;;;;;350.52;328.17;;;16.00;82.60;;;;;;4823641;29;20168;-92
2023/07/23 11:28:03;;;;;;;313.08;293.00;;;16.00;82.30;;;;;;4849844;29;20056;-93
2023/07/23 11:30:35;;;;;;;334.33;313.23;;;16.10;82.50;;;;;;4911138;28;20129;-93
2023/07/23 11:33:02;;;;;;;319.92;299.35;;;16.10;82.50;;;;;;4938897;28;20164;-93
2023/07/23 11:36:33;;;;;;;334.08;313.67;;;16.10;82.50;;;;;;4962408;28;20062;-92
2023/07/23 11:41:53;;;;;;;328.52;308.33;;;16.10;82.70;;;;;;4937194;28;20101;-93
2023/07/23 11:45:00;;;;;;;360.30;336.58;;;16.10;82.70;;;;;;4933635;28;20505;-94
2023/07/23 11:47:34;;;;;;;328.92;308.85;;;16.10;82.70;;;;;;4916559;28;20146;-94
2023/07/23 11:50:48;;;;;;;;;;;;;;;;;;;;;
2023/07/23 11:53:30;;;;;;;318.77;299.63;;;16.10;82.80;;;;;;4926247;28;20061;-94
2023/07/23 11:56:45;;;;;;;317.70;297.48;;;16.00;83.00;;;;;;4938146;28;20078;-93
2023/07/23 11:59:16;;;;;;;297.23;279.42;;;16.00;83.00;;;;;;4909196;29;20051;-93
2023/07/23 12:02:13;;;;;;;320.08;300.25;;;16.00;83.10;;;;;;4927385;29;20059;-94
2023/07/23 12:05:16;;;;;;;305.88;287.17;;;16.00;83.20;;;;;;4914713;29;20051;-93
2023/07/23 12:07:53;;;;;;;316.83;298.02;;;16.00;83.30;;;;;;4914439;28;20098;-93
2023/07/23 12:10:19;;;;;;;329.60;309.77;;;16.00;83.30;;;;;;4924333;29;20102;-90
2023/07/23 12:12:46;;;;;;;347.63;326.45;;;16.00;83.50;;;;;;4935125;28;20083;-90
2023/07/23 12:15:17;;;;;;;334.38;311.90;;;16.00;83.20;;;;;;4938767;28;20043;-92
2023/07/23 12:17:44;;;;;;;324.10;303.83;;;16.00;83.60;;;;;;4923613;28;20420;-90
2023/07/23 12:20:16;;;;;;;337.83;316.92;;;16.00;83.60;;;;;;4920976;29;20823;-91
2023/07/23 12:22:52;;;;;;;298.67;280.73;;;16.00;83.50;;;;;;4934887;29;20570;-90
2023/07/23 12:25:18;;;;;;;334.38;314.38;;;16.00;83.40;;;;;;4933337;29;20058;-91
2023/07/23 12:27:44;;;;;;;334.98;312.70;;;16.10;83.40;;;;;;4922550;28;20083;-92
2023/07/23 12:30:10;;;;;;;351.73;329.27;;;16.10;83.50;;;;;;4931541;28;20047;-90
2023/07/23 12:32:36;;;;;;;317.52;297.23;;;16.10;83.30;;;;;;4918170;29;20803;-91
2023/07/23 12:35:03;;;;;;;365.75;342.65;;;16.20;83.20;;;;;;4930307;28;20502;-91
2023/07/23 12:37:30;;;;;;;364.52;341.83;;;16.30;83.10;;;;;;4906295;28;20071;-90
2023/07/23 12:39:57;;;;;;;348.00;325.75;;;16.40;83.30;;;;;;4927965;29;20079;-90
2023/07/23 12:42:23;;;;;;;375.70;351.48;;;16.50;82.90;;;;;;4927682;29;20095;-91
2023/07/23 12:44:49;;;;;;;357.25;334.08;;;16.70;82.50;;;;;;4942053;29;20047;-90
2023/07/23 12:47:15;;;;;;;340.95;319.55;;;16.80;82.70;;;;;;4918712;28;20109;-90
2023/07/23 12:49:41;;;;;;;339.80;317.83;;;17.00;82.50;;;;;;4944488;29;20043;-92
2023/07/23 12:52:07;;;;;;;356.58;334.05;;;17.00;82.10;;;;;;4946322;28;20158;-90
2023/07/23 12:54:36;;;;;;;398.25;371.20;;;17.10;81.90;;;;;;4920331;29;20862;-91
2023/07/23 12:57:03;;;;;;;434.30;403.27;;;17.20;81.60;;;;;;4912630;29;20047;-91
2023/07/23 12:59:29;;;;;;;412.33;382.50;;;17.30;81.60;;;;;;4921893;28;20050;-93
2023/07/23 13:01:55;;;;;;;566.17;520.45;;;17.40;81.60;;;;;;4961309;28;20508;-92
2023/07/23 13:04:23;;;;;;;402.30;375.00;;;17.60;81.80;;;;;;4923474;28;20047;-91
2023/07/23 13:06:51;;;;;;;430.52;399.08;;;17.80;81.10;;;;;;4952758;28;20058;-94
2023/07/23 13:09:17;;;;;;;473.15;435.08;;;17.80;80.90;;;;;;4999562;23;20078;-92
2023/07/23 13:12:15;;;;;;;411.55;382.10;;;17.90;80.80;;;;;;4942259;28;20129;-94
2023/07/23 13:17:49;;;;;;;374.67;349.95;;;17.80;80.60;;;;;;5020833;23;20065;-92
2023/07/23 13:24:11;;;;;;;587.25;538.20;;;17.60;81.10;;;;;;4969657;28;20133;-92
2023/07/23 13:29:32;;;;;;;458.23;424.95;;;17.50;81.20;;;;;;4934687;28;20046;-93
2023/07/23 13:31:58;;;;;;;408.30;381.00;;;17.50;81.60;;;;;;4942228;28;20047;-91
2023/07/23 13:34:43;;;;;;;517.53;475.15;;;17.60;81.70;;;;;;4954112;28;20062;-94
2023/07/23 13:37:16;;;;;;;462.65;428.77;;;17.60;81.60;;;;;;4930754;28;20129;-91
2023/07/23 13:39:53;;;;;;;;;;;;;;;;;;;;;
2023/07/23 13:42:27;;;;;;;504.83;465.33;;;17.70;81.80;;;;;;4940354;28;20057;-93
2023/07/23 13:44:56;;;;;;;459.83;426.73;;;17.80;81.50;;;;;;4922043;28;20097;-92
2023/07/23 13:48:05;;;;;;;454.70;422.55;;;18.00;81.60;;;;;;4943735;28;25638;-92
2023/07/23 13:50:31;;;;;;;494.80;456.90;;;18.00;81.50;;;;;;4954066;28;20039;-93
2023/07/23 13:52:57;;;;;;;467.45;433.95;;;18.10;81.50;;;;;;4935400;28;20069;-94
2023/07/23 13:55:25;;;;;;;648.13;592.67;;;18.20;81.10;;;;;;4940464;28;20054;-92
2023/07/23 13:57:54;;;;;;;526.38;483.80;;;18.30;81.30;;;;;;4921581;28;20077;-92
2023/07/23 14:00:20;;;;;;;558.58;513.58;;;18.40;81.40;;;;;;4942004;28;20501;-93
2023/07/23 14:02:49;;;;;;;574.40;528.65;;;18.40;81.20;;;;;;4927345;28;20073;-91
2023/07/23 14:05:25;;;;;;;678.38;617.78;;;18.50;80.80;;;;;;4947817;28;20393;-94
2023/07/23 14:08:06;;;;;;;518.97;479.23;;;18.50;80.20;;;;;;4927557;28;20066;-92
2023/07/23 14:10:36;;;;;;;525.20;484.85;;;18.50;79.80;;;;;;4928837;29;20122;-92
2023/07/23 14:13:13;;;;;;;516.63;476.07;;;18.70;79.90;;;;;;4892399;29;20059;-93
2023/07/23 14:16:01;;;;;;;488.60;451.55;;;18.70;79.80;;;;;;4907608;29;20298;-94
2023/07/23 14:18:34;;;;;;;513.30;473.63;;;18.80;79.00;;;;;;4913673;29;20051;-92
2023/07/23 14:21:08;;;;;;;527.08;486.80;;;19.00;78.40;;;;;;4903521;29;20043;-93
2023/07/23 14:23:37;;;;;;;542.08;500.23;;;19.10;77.00;;;;;;4933803;29;20059;-91
2023/07/23 14:26:15;;;;;;;587.03;538.20;;;19.10;76.80;;;;;;4881026;29;20070;-93
2023/07/23 14:29:12;;;;;;;565.72;518.58;;;19.10;77.30;;;;;;4915738;28;20055;-92
2023/07/23 14:31:38;;;;;;;579.83;530.47;;;19.10;75.80;;;;;;4925084;29;20075;-90
2023/07/23 14:34:32;;;;;;;;;;;;;;;;;;;;;
2023/07/23 14:36:58;;;;;;;472.92;435.00;;;19.20;76.20;;;;;;4955699;28;20670;-90
2023/07/23 14:39:42;;;;;;;699.08;632.95;;;19.30;75.90;;;;;;4953145;28;20050;-91
2023/07/23 14:42:08;;;;;;;525.38;482.88;;;19.30;75.20;;;;;;4950391;28;20082;-90
2023/07/23 14:44:40;;;;;;;521.35;476.73;;;19.30;75.80;;;;;;4975029;28;20042;-91
2023/07/23 14:47:08;;;;;;;482.50;442.58;;;19.30;76.00;;;;;;4960752;28;20073;-90
2023/07/23 14:49:50;;;;;;;550.10;505.98;;;19.30;75.80;;;;;;4956662;28;20130;-91
2023/07/23 14:52:24;;;;;;;484.67;446.15;;;19.30;75.50;;;;;;4967089;28;20080;-93
2023/07/23 14:55:06;;;;;;;485.65;447.08;;;19.30;75.70;;;;;;4953897;28;20134;-90
2023/07/23 14:57:37;;;;;;;483.17;444.65;;;19.40;75.10;;;;;;4931403;28;20050;-92
2023/07/23 15:00:12;;;;;;;536.05;490.02;;;19.50;74.80;;;;;;4970149;28;20053;-96
2023/07/23 15:02:38;;;;;;;520.45;479.15;;;19.50;74.90;;;;;;4903461;28;20046;-91
2023/07/23 15:05:30;;;;;;;528.38;484.35;;;19.70;74.70;;;;;;4929313;28;20452;-90